Time;durP1;ratioP1;P1;durP2;ratioP2;P2;SDS_P1;SDS_P2;PMS_P1;PMS_P2;Temp;Humidity;BMP_temperature;BMP_pressure;BME280_temperature;BME280_humidity;BME280_pressure;Samples;Min_cycle;Max_cycle;Signal;HPM_P1;HPM_P2
2023/09/29 00:01:33;;;;;;;20.42;5.43;;;;;;;;;;4976670;28;25107;-72
2023/09/29 00:03:59;;;;;;;17.83;5.18;;;;;;;;;;4967364;28;25062;-71
2023/09/29 00:06:25;;;;;;;14.77;3.95;;;;;;;;;;4977664;28;25105;-73
2023/09/29 00:08:51;;;;;;;14.13;4.30;;;;;;;;;;4958821;28;25082;-72
2023/09/29 00:11:17;;;;;;;13.60;4.70;;;;;;;;;;4980906;28;25066;-73
2023/09/29 00:13:44;;;;;;;17.38;4.97;;;;;;;;;;4983770;28;25082;-73
2023/09/29 00:16:10;;;;;;;14.30;4.13;;;;;;;;;;4968441;28;25103;-72
2023/09/29 00:18:37;;;;;;;15.35;3.92;;;;;;;;;;4991406;28;25157;-73
2023/09/29 00:21:03;;;;;;;18.60;5.10;;;;;;;;;;4990071;28;25102;-70
2023/09/29 00:23:29;;;;;;;19.50;4.25;;;;;;;;;;4988829;28;25103;-71
2023/09/29 00:25:56;;;;;;;22.95;4.25;;;;;;;;;;4997725;28;25159;-74
2023/09/29 00:28:22;;;;;;;14.55;4.03;;;;;;;;;;4985155;28;25076;-72
2023/09/29 00:30:48;;;;;;;15.45;4.45;;;;;;;;;;4991561;28;25105;-72
2023/09/29 00:33:14;;;;;;;19.10;4.40;;;;;;;;;;4980771;28;25065;-73
2023/09/29 00:35:40;;;;;;;17.17;4.30;;;;;;;;;;4995054;28;25113;-70
2023/09/29 00:38:06;;;;;;;13.63;3.90;;;;;;;;;;4982141;28;25092;-72
2023/09/29 00:40:32;;;;;;;15.20;4.38;;;;;;;;;;4985431;28;25080;-72
2023/09/29 00:42:59;;;;;;;16.08;3.67;;;;;;;;;;4982703;28;25137;-74
2023/09/29 00:45:28;;;;;;;13.32;3.97;;;;;;;;;;4974220;28;25065;-72
2023/09/29 00:47:57;;;;;;;17.08;4.07;;;;;;;;;;4984358;28;25058;-73
2023/09/29 00:50:23;;;;;;;14.23;3.85;;;;;;;;;;4992371;28;25087;-71
2023/09/29 00:52:54;;;;;;;26.30;4.65;;;;;;;;;;4984138;28;25073;-74
2023/09/29 00:55:23;;;;;;;12.88;3.58;;;;;;;;;;4991069;28;25061;-71
2023/09/29 00:57:51;;;;;;;13.75;3.92;;;;;;;;;;4983585;28;25077;-74
2023/09/29 01:00:52;;;;;;;16.45;3.97;;;;;;;;;;4991927;28;25052;-72
2023/09/29 01:03:10;;;;;;;;;;;;;;;;;;4980073;28;25047;-72
2023/09/29 01:05:38;;;;;;;21.60;4.15;;;;;;;;;;4992794;28;25065;-72
2023/09/29 01:08:08;;;;;;;16.58;4.45;;;;;;;;;;4982943;28;25132;-69
2023/09/29 01:10:34;;;;;;;12.50;3.75;;;;;;;;;;4983663;28;25111;-73
2023/09/29 01:13:00;;;;;;;21.63;4.50;;;;;;;;;;4960808;28;25129;-73
2023/09/29 01:15:26;;;;;;;18.17;4.22;;;;;;;;;;4969548;28;25119;-70
2023/09/29 01:17:52;;;;;;;10.80;3.88;;;;;;;;;;4978059;28;25066;-71
2023/09/29 01:20:27;;;;;;;14.82;4.13;;;;;;;;;;4987835;28;25058;-71
2023/09/29 01:22:53;;;;;;;11.25;4.07;;;;;;;;;;4961127;28;25065;-72
2023/09/29 01:25:20;;;;;;;15.30;4.45;;;;;;;;;;4988804;28;25050;-70
2023/09/29 01:27:47;;;;;;;16.80;4.85;;;;;;;;;;4989495;28;25054;-73
2023/09/29 01:30:19;;;;;;;20.60;5.15;;;;;;;;;;4985159;28;25119;-73
2023/09/29 01:32:50;;;;;;;17.08;4.65;;;;;;;;;;4976484;28;25065;-71
2023/09/29 01:35:17;;;;;;;15.18;4.10;;;;;;;;;;4977850;28;25059;-71
2023/09/29 01:37:43;;;;;;;19.13;4.57;;;;;;;;;;4981319;28;25074;-70
2023/09/29 01:40:09;;;;;;;14.85;3.97;;;;;;;;;;4956296;28;25073;-71
2023/09/29 01:42:36;;;;;;;15.15;4.75;;;;;;;;;;4982765;28;25047;-71
2023/09/29 01:45:07;;;;;;;19.13;3.83;;;;;;;;;;4980702;28;25059;-70
2023/09/29 01:47:34;;;;;;;14.15;3.67;;;;;;;;;;4981506;28;25153;-71
2023/09/29 01:50:00;;;;;;;17.08;4.93;;;;;;;;;;4991755;28;25056;-71
2023/09/29 01:52:26;;;;;;;13.65;4.45;;;;;;;;;;4985251;28;25099;-71
2023/09/29 01:54:57;;;;;;;14.05;4.30;;;;;;;;;;4983115;28;25065;-70
2023/09/29 01:57:23;;;;;;;13.43;3.58;;;;;;;;;;4984257;28;25149;-70
2023/09/29 01:59:49;;;;;;;15.60;4.53;;;;;;;;;;4973205;28;25102;-72
2023/09/29 02:02:15;;;;;;;14.73;4.40;;;;;;;;;;4986589;28;25141;-72
2023/09/29 02:04:41;;;;;;;12.50;3.90;;;;;;;;;;4975456;28;25067;-73
2023/09/29 02:07:09;;;;;;;16.17;4.10;;;;;;;;;;4982930;28;25107;-70
2023/09/29 02:09:35;;;;;;;11.98;3.97;;;;;;;;;;4958863;28;25063;-72
2023/09/29 02:12:01;;;;;;;15.55;4.40;;;;;;;;;;4971465;28;25125;-72
2023/09/29 02:14:28;;;;;;;8.10;3.63;;;;;;;;;;4978958;28;25105;-73
2023/09/29 02:16:54;;;;;;;16.48;5.03;;;;;;;;;;4988353;28;25064;-70
2023/09/29 02:19:20;;;;;;;16.90;3.97;;;;;;;;;;4981184;28;25090;-71
2023/09/29 02:21:46;;;;;;;10.95;3.40;;;;;;;;;;4984992;28;25101;-71
2023/09/29 02:24:12;;;;;;;12.70;4.03;;;;;;;;;;4979569;28;25080;-71
2023/09/29 02:26:38;;;;;;;9.15;3.00;;;;;;;;;;4985721;28;25062;-72
2023/09/29 02:29:05;;;;;;;6.65;3.33;;;;;;;;;;4988280;28;25055;-70
2023/09/29 02:31:31;;;;;;;7.13;2.90;;;;;;;;;;4982027;28;25056;-72
2023/09/29 02:33:57;;;;;;;12.13;4.10;;;;;;;;;;4993160;28;25070;-70
2023/09/29 02:36:23;;;;;;;7.50;3.00;;;;;;;;;;4994434;28;25117;-72
2023/09/29 02:38:50;;;;;;;15.35;3.97;;;;;;;;;;4977411;28;25120;-73
2023/09/29 02:41:16;;;;;;;11.35;4.22;;;;;;;;;;4984079;28;25073;-74
2023/09/29 02:43:42;;;;;;;14.48;3.83;;;;;;;;;;4990737;28;25144;-73
2023/09/29 02:46:17;;;;;;;10.23;2.95;;;;;;;;;;4968321;28;25057;-71
2023/09/29 02:48:43;;;;;;;8.95;3.60;;;;;;;;;;4973665;28;25153;-71
2023/09/29 02:51:16;;;;;;;12.80;4.00;;;;;;;;;;4983105;28;25102;-71
2023/09/29 02:53:43;;;;;;;15.52;3.95;;;;;;;;;;4980342;28;25052;-71
2023/09/29 02:56:10;;;;;;;8.50;2.58;;;;;;;;;;4985022;28;25109;-72
2023/09/29 02:58:36;;;;;;;12.88;3.63;;;;;;;;;;4976900;28;25055;-71
2023/09/29 03:01:02;;;;;;;9.25;3.00;;;;;;;;;;4976892;28;25053;-73
2023/09/29 03:03:28;;;;;;;9.63;3.35;;;;;;;;;;4991833;28;25062;-74
2023/09/29 03:05:54;;;;;;;12.05;3.08;;;;;;;;;;4986923;28;25155;-71
2023/09/29 03:08:20;;;;;;;15.50;3.17;;;;;;;;;;4983631;28;25127;-71
2023/09/29 03:10:46;;;;;;;10.13;2.95;;;;;;;;;;4975647;28;25074;-72
2023/09/29 03:13:13;;;;;;;8.45;3.13;;;;;;;;;;4988156;28;25041;-71
2023/09/29 03:15:41;;;;;;;11.10;3.22;;;;;;;;;;4983354;28;25113;-70
2023/09/29 03:18:07;;;;;;;7.88;2.95;;;;;;;;;;4974715;28;25081;-70
2023/09/29 03:20:33;;;;;;;18.40;4.28;;;;;;;;;;4983749;28;25096;-72
2023/09/29 03:23:04;;;;;;;9.02;2.85;;;;;;;;;;4977221;28;25067;-70
2023/09/29 03:25:30;;;;;;;9.05;3.03;;;;;;;;;;4982852;28;25046;-72
2023/09/29 03:27:56;;;;;;;10.75;3.28;;;;;;;;;;4989132;28;25099;-71
2023/09/29 03:30:22;;;;;;;8.15;3.13;;;;;;;;;;4990219;28;25104;-71
2023/09/29 03:32:48;;;;;;;9.73;4.05;;;;;;;;;;4985044;28;25072;-70
2023/09/29 03:35:14;;;;;;;10.07;3.17;;;;;;;;;;4971253;28;25062;-73
2023/09/29 03:37:40;;;;;;;9.10;3.25;;;;;;;;;;4987568;28;25078;-71
2023/09/29 03:40:09;;;;;;;9.57;3.60;;;;;;;;;;4981959;28;25135;-71
2023/09/29 03:42:36;;;;;;;7.68;2.72;;;;;;;;;;4989775;28;25067;-71
2023/09/29 03:45:05;;;;;;;9.45;2.85;;;;;;;;;;4984307;28;25078;-72
2023/09/29 03:47:32;;;;;;;14.05;3.45;;;;;;;;;;4983128;28;25105;-71
2023/09/29 03:49:58;;;;;;;9.15;3.47;;;;;;;;;;4989997;28;25142;-72
2023/09/29 03:52:25;;;;;;;6.13;2.75;;;;;;;;;;4968511;28;25072;-70
2023/09/29 03:54:51;;;;;;;10.27;3.40;;;;;;;;;;4992581;28;25069;-71
2023/09/29 03:57:17;;;;;;;8.73;3.42;;;;;;;;;;4988757;28;25087;-72
2023/09/29 03:59:44;;;;;;;9.02;3.17;;;;;;;;;;4982420;28;25089;-71
2023/09/29 04:02:10;;;;;;;8.75;2.88;;;;;;;;;;4979693;28;25042;-74
2023/09/29 04:04:36;;;;;;;8.00;3.13;;;;;;;;;;4979773;28;25074;-71
2023/09/29 04:07:04;;;;;;;10.00;3.08;;;;;;;;;;4984022;28;25094;-71
2023/09/29 04:09:30;;;;;;;6.68;2.67;;;;;;;;;;4984666;28;25144;-71
2023/09/29 04:11:56;;;;;;;11.23;2.83;;;;;;;;;;4988180;28;25063;-72
2023/09/29 04:14:22;;;;;;;5.63;3.10;;;;;;;;;;4985826;28;25084;-70
2023/09/29 04:16:48;;;;;;;10.82;3.50;;;;;;;;;;4989464;28;25067;-76
2023/09/29 04:19:15;;;;;;;7.40;3.05;;;;;;;;;;4988542;28;25070;-71
2023/09/29 04:21:41;;;;;;;5.32;2.85;;;;;;;;;;4982430;28;25089;-70
2023/09/29 04:24:07;;;;;;;7.63;3.00;;;;;;;;;;4987739;28;25154;-72
2023/09/29 04:26:35;;;;;;;7.05;2.90;;;;;;;;;;4989035;28;25083;-72
2023/09/29 04:29:01;;;;;;;9.57;3.22;;;;;;;;;;4986670;28;25086;-70
2023/09/29 04:31:27;;;;;;;10.55;3.15;;;;;;;;;;4964883;28;25057;-74
2023/09/29 04:33:53;;;;;;;10.20;3.63;;;;;;;;;;4980436;28;25116;-71
2023/09/29 04:36:19;;;;;;;8.88;2.80;;;;;;;;;;4981987;28;25098;-73
2023/09/29 04:38:45;;;;;;;11.32;4.10;;;;;;;;;;4979452;28;25102;-70
2023/09/29 04:41:12;;;;;;;9.30;3.45;;;;;;;;;;4985845;28;25054;-70
2023/09/29 04:43:38;;;;;;;9.75;2.85;;;;;;;;;;4985606;28;25102;-69
2023/09/29 04:46:04;;;;;;;12.38;3.60;;;;;;;;;;4963034;28;25060;-72
2023/09/29 04:48:30;;;;;;;10.10;2.80;;;;;;;;;;4963805;28;25156;-69
2023/09/29 04:50:56;;;;;;;12.88;2.75;;;;;;;;;;4982067;28;25069;-71
2023/09/29 04:53:22;;;;;;;10.70;4.00;;;;;;;;;;4981131;28;25047;-69
2023/09/29 04:55:49;;;;;;;9.63;2.92;;;;;;;;;;4966612;28;25049;-73
2023/09/29 04:58:15;;;;;;;8.15;2.90;;;;;;;;;;4980533;28;25079;-71
2023/09/29 05:00:42;;;;;;;3.92;2.35;;;;;;;;;;4979954;28;25098;-70
2023/09/29 05:03:10;;;;;;;6.90;2.53;;;;;;;;;;4987216;28;25155;-71
2023/09/29 05:05:36;;;;;;;9.13;2.92;;;;;;;;;;4963699;28;25161;-72
2023/09/29 05:08:02;;;;;;;5.95;2.88;;;;;;;;;;4978505;28;25085;-73
2023/09/29 05:10:28;;;;;;;6.88;2.72;;;;;;;;;;4979906;28;25080;-69
2023/09/29 05:12:54;;;;;;;7.30;2.65;;;;;;;;;;4967105;28;25141;-72
2023/09/29 05:15:20;;;;;;;5.38;2.00;;;;;;;;;;4980948;28;25092;-70
2023/09/29 05:17:46;;;;;;;5.28;2.17;;;;;;;;;;4974131;28;25165;-71
2023/09/29 05:20:12;;;;;;;5.28;2.63;;;;;;;;;;4983281;28;25095;-72
2023/09/29 05:22:38;;;;;;;3.38;2.40;;;;;;;;;;4986535;28;25080;-69
2023/09/29 05:25:05;;;;;;;7.28;2.17;;;;;;;;;;4985337;28;25077;-70
2023/09/29 05:27:32;;;;;;;8.93;3.00;;;;;;;;;;4988945;28;25076;-73
2023/09/29 05:29:58;;;;;;;5.82;2.25;;;;;;;;;;4985663;28;25053;-69
2023/09/29 05:32:24;;;;;;;7.97;2.55;;;;;;;;;;4987968;28;25063;-71
2023/09/29 05:34:50;;;;;;;10.10;1.95;;;;;;;;;;4983456;28;25089;-70
2023/09/29 05:37:17;;;;;;;5.38;2.45;;;;;;;;;;4984632;28;25065;-69
2023/09/29 05:39:43;;;;;;;6.35;2.65;;;;;;;;;;4977540;28;25063;-71
2023/09/29 05:42:09;;;;;;;6.18;2.30;;;;;;;;;;4978672;28;25098;-74
2023/09/29 05:44:35;;;;;;;10.90;2.70;;;;;;;;;;4980620;28;25105;-69
2023/09/29 05:47:02;;;;;;;5.28;2.72;;;;;;;;;;4981984;28;25147;-70
2023/09/29 05:49:28;;;;;;;5.60;2.15;;;;;;;;;;4986202;28;25102;-74
2023/09/29 05:51:54;;;;;;;6.78;2.55;;;;;;;;;;4985030;28;25068;-74
2023/09/29 05:54:20;;;;;;;6.15;2.55;;;;;;;;;;4981812;28;25054;-71
2023/09/29 05:56:48;;;;;;;4.93;2.45;;;;;;;;;;4962426;28;25133;-70
2023/09/29 05:59:14;;;;;;;6.43;2.15;;;;;;;;;;4983472;28;25156;-70
2023/09/29 06:01:40;;;;;;;5.05;2.35;;;;;;;;;;4977061;28;25158;-71
2023/09/29 06:04:06;;;;;;;5.82;2.75;;;;;;;;;;4987652;28;26188;-70
2023/09/29 06:06:32;;;;;;;5.40;2.45;;;;;;;;;;4961099;28;25103;-71
2023/09/29 06:08:59;;;;;;;4.53;2.20;;;;;;;;;;4985081;28;25102;-72
2023/09/29 06:11:25;;;;;;;3.55;2.20;;;;;;;;;;4962008;28;25064;-73
2023/09/29 06:13:51;;;;;;;7.15;3.10;;;;;;;;;;4986521;28;25087;-71
2023/09/29 06:16:17;;;;;;;5.55;2.35;;;;;;;;;;4985772;28;25069;-71
2023/09/29 06:18:46;;;;;;;6.75;2.13;;;;;;;;;;4983482;28;25077;-73
2023/09/29 06:21:12;;;;;;;5.57;1.98;;;;;;;;;;4980583;28;25052;-76
2023/09/29 06:23:38;;;;;;;5.82;2.47;;;;;;;;;;4978066;28;25164;-71
2023/09/29 06:26:04;;;;;;;6.72;2.13;;;;;;;;;;4981536;28;25156;-70
2023/09/29 06:28:30;;;;;;;6.68;2.30;;;;;;;;;;4982837;28;25075;-72
2023/09/29 06:30:57;;;;;;;7.90;2.67;;;;;;;;;;4980434;28;25135;-77
2023/09/29 06:33:24;;;;;;;6.38;2.53;;;;;;;;;;4983506;28;25076;-74
2023/09/29 06:35:50;;;;;;;5.97;2.83;;;;;;;;;;4980455;28;25103;-69
2023/09/29 06:38:15;;;;;;;5.55;2.67;;;;;;;;;;4981116;28;25088;-75
2023/09/29 06:40:43;;;;;;;5.85;2.33;;;;;;;;;;4985931;28;25073;-76
2023/09/29 06:43:09;;;;;;;5.93;2.42;;;;;;;;;;4981635;28;25055;-73
2023/09/29 06:45:35;;;;;;;6.88;2.97;;;;;;;;;;4981441;28;25057;-75
2023/09/29 06:48:01;;;;;;;7.00;2.97;;;;;;;;;;4981893;28;25156;-73
2023/09/29 06:50:27;;;;;;;7.32;2.20;;;;;;;;;;4965054;28;25057;-72
2023/09/29 06:52:53;;;;;;;4.30;2.22;;;;;;;;;;4977444;28;25081;-72
2023/09/29 06:55:19;;;;;;;7.68;2.80;;;;;;;;;;4962845;28;25056;-72
2023/09/29 06:57:45;;;;;;;5.13;2.47;;;;;;;;;;4981611;28;25062;-74
2023/09/29 07:00:11;;;;;;;5.68;2.95;;;;;;;;;;4977842;28;25194;-73
2023/09/29 07:02:37;;;;;;;6.38;2.95;;;;;;;;;;4979912;28;25106;-72
2023/09/29 07:05:05;;;;;;;5.70;2.63;;;;;;;;;;4983218;28;25088;-74
2023/09/29 07:07:35;;;;;;;11.55;3.03;;;;;;;;;;4982283;28;25044;-74
2023/09/29 07:10:01;;;;;;;5.55;2.03;;;;;;;;;;4983692;28;25101;-70
2023/09/29 07:12:27;;;;;;;9.38;2.67;;;;;;;;;;4989488;28;25102;-69
2023/09/29 07:14:56;;;;;;;7.43;2.85;;;;;;;;;;4986771;28;25089;-73
2023/09/29 07:17:22;;;;;;;7.57;2.70;;;;;;;;;;4990731;28;25107;-68
2023/09/29 07:19:48;;;;;;;4.45;2.67;;;;;;;;;;4991434;28;25098;-69
2023/09/29 07:22:14;;;;;;;4.38;2.50;;;;;;;;;;4985756;28;25142;-73
2023/09/29 07:24:41;;;;;;;4.60;2.45;;;;;;;;;;4985432;28;25062;-72
2023/09/29 07:27:10;;;;;;;3.92;2.38;;;;;;;;;;4969992;28;25157;-73
2023/09/29 07:29:36;;;;;;;4.75;2.45;;;;;;;;;;4992000;28;25042;-72
2023/09/29 07:32:02;;;;;;;7.80;2.60;;;;;;;;;;4986406;28;25072;-71
2023/09/29 07:34:30;;;;;;;7.50;2.65;;;;;;;;;;4983196;28;25076;-73
2023/09/29 07:36:56;;;;;;;4.93;2.97;;;;;;;;;;4987056;28;25062;-72
2023/09/29 07:39:22;;;;;;;5.97;2.50;;;;;;;;;;4986750;28;25092;-74
2023/09/29 07:41:50;;;;;;;5.65;2.42;;;;;;;;;;4972010;28;25067;-77
2023/09/29 07:44:16;;;;;;;10.73;3.08;;;;;;;;;;4971762;28;25132;-73
2023/09/29 07:46:42;;;;;;;6.15;2.35;;;;;;;;;;4990839;28;25054;-73
2023/09/29 07:49:08;;;;;;;4.35;2.75;;;;;;;;;;4984945;28;25055;-73
2023/09/29 07:51:35;;;;;;;6.32;3.00;;;;;;;;;;4994144;28;25074;-72
2023/09/29 07:54:01;;;;;;;6.10;2.60;;;;;;;;;;4995576;28;25115;-72
2023/09/29 07:56:27;;;;;;;6.60;2.70;;;;;;;;;;4994372;28;25053;-73
2023/09/29 07:58:54;;;;;;;11.77;3.25;;;;;;;;;;4989503;28;25070;-72
2023/09/29 08:01:20;;;;;;;6.95;2.72;;;;;;;;;;4966942;28;25170;-72
2023/09/29 08:03:46;;;;;;;6.57;3.42;;;;;;;;;;4982020;28;25072;-73
2023/09/29 08:06:13;;;;;;;9.65;3.03;;;;;;;;;;4983519;28;25070;-74
2023/09/29 08:08:40;;;;;;;8.48;2.60;;;;;;;;;;4988020;28;25084;-74
2023/09/29 08:11:06;;;;;;;6.43;2.88;;;;;;;;;;4979219;28;25055;-73
2023/09/29 08:13:31;;;;;;;7.25;2.45;;;;;;;;;;4985648;28;25086;-73
2023/09/29 08:15:57;;;;;;;6.65;2.70;;;;;;;;;;4981949;28;25097;-73
2023/09/29 08:18:23;;;;;;;9.50;3.00;;;;;;;;;;4981494;28;25131;-71
2023/09/29 08:20:53;;;;;;;7.05;3.00;;;;;;;;;;4979977;28;25072;-71
2023/09/29 08:23:19;;;;;;;4.97;2.65;;;;;;;;;;4980073;28;25047;-71
2023/09/29 08:25:46;;;;;;;5.20;2.85;;;;;;;;;;4984344;28;25161;-76
2023/09/29 08:28:13;;;;;;;3.85;2.47;;;;;;;;;;4981499;28;25051;-70
2023/09/29 08:30:39;;;;;;;3.95;2.58;;;;;;;;;;4968620;28;25059;-71
2023/09/29 08:33:05;;;;;;;6.35;2.72;;;;;;;;;;4981750;28;25064;-71
2023/09/29 08:35:31;;;;;;;4.65;2.38;;;;;;;;;;4984495;28;25167;-69
2023/09/29 08:37:58;;;;;;;4.93;2.47;;;;;;;;;;4981598;28;25051;-73
2023/09/29 08:40:25;;;;;;;3.33;2.05;;;;;;;;;;4983734;28;25132;-73
2023/09/29 08:42:51;;;;;;;5.97;2.67;;;;;;;;;;4981141;28;25069;-71
2023/09/29 08:45:17;;;;;;;8.20;2.90;;;;;;;;;;4983065;28;25072;-71
2023/09/29 08:47:47;;;;;;;9.50;3.10;;;;;;;;;;4967416;28;25125;-70
2023/09/29 08:50:14;;;;;;;4.93;2.58;;;;;;;;;;4965998;28;25062;-73
2023/09/29 08:52:44;;;;;;;6.18;2.88;;;;;;;;;;4981284;28;25069;-68
2023/09/29 08:55:12;;;;;;;8.80;2.50;;;;;;;;;;4984439;28;25067;-74
2023/09/29 08:57:38;;;;;;;6.22;2.30;;;;;;;;;;4964615;28;25059;-71
2023/09/29 09:00:06;;;;;;;5.25;2.40;;;;;;;;;;4985736;28;25100;-71
2023/09/29 09:02:32;;;;;;;6.95;2.40;;;;;;;;;;4966418;28;25081;-72
2023/09/29 09:04:58;;;;;;;5.65;2.83;;;;;;;;;;4981180;28;25120;-69
2023/09/29 09:07:24;;;;;;;6.20;2.28;;;;;;;;;;4981374;28;25059;-70
2023/09/29 09:09:53;;;;;;;6.82;2.40;;;;;;;;;;4983264;28;25159;-69
2023/09/29 09:12:32;;;;;;;11.75;3.53;;;;;;;;;;4974094;28;25059;-69
2023/09/29 09:14:58;;;;;;;5.78;2.55;;;;;;;;;;4985217;28;25069;-71
2023/09/29 09:17:25;;;;;;;9.63;2.65;;;;;;;;;;4971714;28;25103;-71
2023/09/29 09:19:51;;;;;;;4.88;2.65;;;;;;;;;;4977069;28;25078;-71
2023/09/29 09:22:18;;;;;;;9.80;2.92;;;;;;;;;;4968859;28;25059;-69
2023/09/29 09:24:44;;;;;;;7.57;3.63;;;;;;;;;;4963903;28;25069;-70
2023/09/29 09:27:12;;;;;;;7.80;3.22;;;;;;;;;;4970295;28;25064;-72
2023/09/29 09:29:41;;;;;;;7.43;3.28;;;;;;;;;;4988292;28;25069;-74
2023/09/29 09:32:09;;;;;;;5.75;3.13;;;;;;;;;;4982607;28;25134;-71
2023/09/29 09:34:36;;;;;;;5.72;3.63;;;;;;;;;;4975466;28;25080;-69
2023/09/29 09:37:03;;;;;;;7.45;3.42;;;;;;;;;;4973006;28;25066;-69
2023/09/29 09:39:29;;;;;;;11.05;3.20;;;;;;;;;;4973102;28;25052;-72
2023/09/29 09:41:56;;;;;;;7.88;3.35;;;;;;;;;;4986463;28;25136;-69
2023/09/29 09:44:23;;;;;;;6.60;3.90;;;;;;;;;;4976333;28;25073;-69
2023/09/29 09:47:04;;;;;;;9.07;3.67;;;;;;;;;;4988836;28;25067;-73
2023/09/29 09:49:44;;;;;;;8.85;3.80;;;;;;;;;;4980699;28;25071;-71
2023/09/29 09:52:12;;;;;;;7.20;3.38;;;;;;;;;;4960250;28;25094;-70
2023/09/29 09:54:58;;;;;;;5.13;3.13;;;;;;;;;;4986319;28;25120;-73
2023/09/29 09:57:34;;;;;;;8.18;3.08;;;;;;;;;;4981899;28;25066;-71
2023/09/29 10:00:07;;;;;;;7.75;3.70;;;;;;;;;;4982891;28;25146;-70
2023/09/29 10:02:41;;;;;;;9.02;3.30;;;;;;;;;;4970953;28;25066;-70
2023/09/29 10:05:22;;;;;;;5.22;3.65;;;;;;;;;;4972232;28;25058;-69
2023/09/29 10:07:49;;;;;;;8.43;3.80;;;;;;;;;;4985805;28;25106;-73
2023/09/29 10:10:26;;;;;;;5.07;3.33;;;;;;;;;;4984088;28;25052;-69
2023/09/29 10:12:55;;;;;;;6.80;3.35;;;;;;;;;;4979081;28;25078;-69
2023/09/29 10:15:21;;;;;;;9.75;3.88;;;;;;;;;;4983150;28;25075;-71
2023/09/29 10:17:48;;;;;;;5.20;3.38;;;;;;;;;;5001511;28;25169;-74
2023/09/29 10:20:20;;;;;;;6.97;2.88;;;;;;;;;;4969508;28;25050;-72
2023/09/29 10:22:47;;;;;;;5.25;3.53;;;;;;;;;;4979494;28;25157;-71
2023/09/29 10:25:20;;;;;;;7.22;3.70;;;;;;;;;;4993971;28;25085;-71
2023/09/29 10:27:49;;;;;;;6.03;3.40;;;;;;;;;;4993650;28;25068;-71
2023/09/29 10:30:18;;;;;;;5.68;3.78;;;;;;;;;;4984546;28;25054;-72
2023/09/29 10:32:45;;;;;;;10.80;4.63;;;;;;;;;;4983065;28;25167;-74
2023/09/29 10:35:18;;;;;;;7.28;3.90;;;;;;;;;;4979665;28;25088;-70
2023/09/29 10:37:47;;;;;;;8.13;4.40;;;;;;;;;;4989582;28;25057;-72
2023/09/29 10:40:32;;;;;;;4.82;3.78;;;;;;;;;;4984754;28;25055;-70
2023/09/29 10:43:01;;;;;;;6.00;3.97;;;;;;;;;;4983911;28;25067;-72
2023/09/29 10:45:37;;;;;;;5.80;4.20;;;;;;;;;;4984825;28;25050;-71
2023/09/29 10:48:07;;;;;;;5.35;4.07;;;;;;;;;;4962727;28;25073;-72
2023/09/29 10:50:45;;;;;;;8.48;4.10;;;;;;;;;;4987153;28;25064;-72
2023/09/29 10:53:12;;;;;;;4.70;3.35;;;;;;;;;;4977959;28;25054;-72
2023/09/29 10:55:42;;;;;;;5.13;3.63;;;;;;;;;;4985172;28;25194;-72
2023/09/29 10:58:09;;;;;;;6.85;3.78;;;;;;;;;;4987068;28;25061;-72
2023/09/29 11:00:43;;;;;;;3.90;2.20;;;;;;;;;;4979833;28;25067;-75
2023/09/29 11:03:12;;;;;;;2.17;1.95;;;;;;;;;;4989197;28;25051;-74
2023/09/29 11:05:58;;;;;;;4.32;1.83;;;;;;;;;;4954034;28;25109;-75
2023/09/29 11:08:34;;;;;;;5.60;1.67;;;;;;;;;;4973477;28;25188;-73
2023/09/29 11:11:02;;;;;;;5.22;1.33;;;;;;;;;;4986647;28;25073;-72
2023/09/29 11:13:29;;;;;;;5.03;1.67;;;;;;;;;;4987169;28;25131;-71
2023/09/29 11:15:56;;;;;;;3.55;1.55;;;;;;;;;;4976607;28;25078;-74
2023/09/29 11:18:39;;;;;;;4.18;1.52;;;;;;;;;;4984243;28;25156;-72
2023/09/29 11:21:09;;;;;;;5.25;1.42;;;;;;;;;;4972737;28;25125;-72
2023/09/29 11:23:45;;;;;;;5.20;1.05;;;;;;;;;;4976919;28;25079;-74
2023/09/29 11:26:11;;;;;;;5.60;2.30;;;;;;;;;;4964827;28;25058;-73
2023/09/29 11:28:41;;;;;;;5.70;1.35;;;;;;;;;;4976866;28;25054;-76
2023/09/29 11:31:10;;;;;;;4.20;1.02;;;;;;;;;;4986855;28;25062;-73
2023/09/29 11:33:37;;;;;;;3.08;1.08;;;;;;;;;;4976094;28;25114;-73
2023/09/29 11:36:17;;;;;;;2.97;1.13;;;;;;;;;;4981373;28;25105;-72
2023/09/29 11:38:44;;;;;;;4.38;2.10;;;;;;;;;;4977448;28;25063;-75
2023/09/29 11:41:10;;;;;;;3.35;1.35;;;;;;;;;;4981337;28;25063;-73
2023/09/29 11:43:36;;;;;;;3.35;1.55;;;;;;;;;;4958905;28;25153;-75
2023/09/29 11:46:06;;;;;;;10.20;2.60;;;;;;;;;;4981661;28;25149;-75
2023/09/29 11:48:32;;;;;;;6.90;2.40;;;;;;;;;;4985303;28;25177;-75
2023/09/29 11:50:58;;;;;;;7.53;2.20;;;;;;;;;;4973759;28;25075;-77
2023/09/29 11:53:24;;;;;;;6.90;2.22;;;;;;;;;;4983640;28;25149;-74
2023/09/29 11:55:51;;;;;;;6.60;1.80;;;;;;;;;;4969298;28;25079;-74
2023/09/29 11:58:17;;;;;;;5.13;2.30;;;;;;;;;;4985260;28;25105;-74
2023/09/29 12:00:43;;;;;;;4.10;1.75;;;;;;;;;;4979794;28;25127;-75
2023/09/29 12:03:11;;;;;;;7.80;1.88;;;;;;;;;;4975237;28;25147;-74
2023/09/29 12:05:37;;;;;;;6.65;2.60;;;;;;;;;;4988799;28;25087;-75
2023/09/29 12:08:05;;;;;;;4.03;1.63;;;;;;;;;;4962599;28;25051;-73
2023/09/29 12:10:31;;;;;;;4.30;1.50;;;;;;;;;;4996436;28;25120;-74
2023/09/29 12:13:00;;;;;;;7.95;2.00;;;;;;;;;;4993479;28;25089;-75
2023/09/29 12:15:26;;;;;;;5.63;1.55;;;;;;;;;;4986762;28;25078;-73
2023/09/29 12:17:53;;;;;;;8.38;2.08;;;;;;;;;;4991542;28;25058;-76
2023/09/29 12:20:21;;;;;;;3.88;1.35;;;;;;;;;;4983801;28;25087;-77
2023/09/29 12:22:47;;;;;;;6.40;1.35;;;;;;;;;;4980605;28;25066;-74
2023/09/29 12:25:14;;;;;;;8.85;1.33;;;;;;;;;;4985784;28;25083;-75
2023/09/29 12:27:41;;;;;;;6.72;1.52;;;;;;;;;;4985970;28;25157;-73
2023/09/29 12:30:08;;;;;;;10.70;1.58;;;;;;;;;;4990481;28;25092;-73
2023/09/29 12:32:36;;;;;;;5.20;1.50;;;;;;;;;;4985654;28;25140;-73
2023/09/29 12:35:03;;;;;;;5.60;1.70;;;;;;;;;;4985147;28;25138;-73
2023/09/29 12:37:29;;;;;;;8.30;1.75;;;;;;;;;;4981208;28;25076;-73
2023/09/29 12:39:55;;;;;;;2.63;1.52;;;;;;;;;;4993381;28;25059;-73
2023/09/29 12:42:21;;;;;;;10.80;1.95;;;;;;;;;;4986122;28;25069;-72
2023/09/29 12:44:47;;;;;;;15.85;2.60;;;;;;;;;;4980614;28;25062;-72
2023/09/29 12:47:14;;;;;;;12.70;2.63;;;;;;;;;;4982808;28;25082;-72
2023/09/29 12:49:40;;;;;;;8.90;2.85;;;;;;;;;;4983870;28;25067;-75
2023/09/29 12:52:08;;;;;;;16.70;3.08;;;;;;;;;;4979922;28;25051;-72
2023/09/29 12:54:34;;;;;;;14.50;3.95;;;;;;;;;;4977846;28;25142;-74
2023/09/29 12:57:00;;;;;;;15.45;3.08;;;;;;;;;;4985140;28;25061;-73
2023/09/29 12:59:27;;;;;;;15.27;2.70;;;;;;;;;;4979715;28;25111;-73
2023/09/29 13:01:53;;;;;;;8.70;2.70;;;;;;;;;;4994124;28;25073;-73
2023/09/29 13:04:25;;;;;;;16.38;3.72;;;;;;;;;;4986804;28;25101;-74
2023/09/29 13:06:52;;;;;;;15.88;4.10;;;;;;;;;;4981097;28;25069;-75
2023/09/29 13:09:18;;;;;;;17.45;3.42;;;;;;;;;;4976660;28;25065;-73
2023/09/29 13:11:48;;;;;;;7.82;2.35;;;;;;;;;;4994449;28;25077;-73
2023/09/29 13:14:14;;;;;;;11.82;3.45;;;;;;;;;;4988236;28;25070;-71
2023/09/29 13:16:40;;;;;;;8.77;3.10;;;;;;;;;;4958291;28;25083;-73
2023/09/29 13:19:06;;;;;;;9.90;2.50;;;;;;;;;;4986504;28;25090;-73
2023/09/29 13:21:33;;;;;;;12.05;2.67;;;;;;;;;;4983146;28;25168;-77
2023/09/29 13:24:00;;;;;;;11.48;3.03;;;;;;;;;;4985468;28;25061;-76
2023/09/29 13:26:26;;;;;;;6.78;2.00;;;;;;;;;;4980158;28;25045;-71
2023/09/29 13:28:52;;;;;;;9.38;2.83;;;;;;;;;;4967211;28;25063;-72
2023/09/29 13:31:18;;;;;;;15.05;2.28;;;;;;;;;;4989536;28;25052;-74
2023/09/29 13:33:44;;;;;;;11.30;2.92;;;;;;;;;;4983810;28;25056;-74
2023/09/29 13:36:10;;;;;;;12.40;3.63;;;;;;;;;;4986727;28;25129;-73
2023/09/29 13:38:36;;;;;;;17.23;2.83;;;;;;;;;;4986973;28;25105;-75
2023/09/29 13:41:02;;;;;;;9.95;2.35;;;;;;;;;;4974973;28;25121;-73
2023/09/29 13:43:28;;;;;;;8.90;2.60;;;;;;;;;;4976234;28;25073;-73
2023/09/29 13:45:55;;;;;;;9.70;2.78;;;;;;;;;;4987389;28;25079;-74
2023/09/29 13:48:22;;;;;;;9.15;2.10;;;;;;;;;;4979521;28;25103;-74
2023/09/29 13:50:48;;;;;;;6.03;2.53;;;;;;;;;;4979537;28;25069;-74
2023/09/29 13:53:15;;;;;;;8.93;1.83;;;;;;;;;;4987875;28;25066;-72
2023/09/29 13:55:40;;;;;;;9.77;2.20;;;;;;;;;;4978791;28;25073;-72
2023/09/29 13:58:06;;;;;;;11.88;2.95;;;;;;;;;;4988923;28;25137;-74
2023/09/29 14:00:33;;;;;;;9.38;2.22;;;;;;;;;;4993574;28;25060;-72
2023/09/29 14:03:01;;;;;;;10.52;2.20;;;;;;;;;;4978358;28;25065;-71
2023/09/29 14:05:27;;;;;;;11.05;1.77;;;;;;;;;;4999790;28;25049;-73
2023/09/29 14:07:55;;;;;;;6.90;2.08;;;;;;;;;;4990922;28;25140;-73
2023/09/29 14:10:21;;;;;;;7.10;2.13;;;;;;;;;;4975073;28;25069;-73
2023/09/29 14:12:47;;;;;;;6.70;1.63;;;;;;;;;;4985101;28;25066;-72
2023/09/29 14:15:13;;;;;;;9.40;2.42;;;;;;;;;;4979671;28;25076;-72
2023/09/29 14:17:39;;;;;;;8.80;2.20;;;;;;;;;;4980431;28;25056;-71
2023/09/29 14:20:08;;;;;;;18.67;3.20;;;;;;;;;;4989280;28;25051;-72
2023/09/29 14:22:34;;;;;;;9.82;2.40;;;;;;;;;;4983479;28;25064;-72
2023/09/29 14:25:00;;;;;;;8.38;2.88;;;;;;;;;;4987238;28;25057;-73
2023/09/29 14:27:27;;;;;;;8.75;2.72;;;;;;;;;;4979843;28;25070;-72
2023/09/29 14:29:53;;;;;;;7.93;2.63;;;;;;;;;;4985516;28;25130;-71
2023/09/29 14:32:19;;;;;;;9.05;2.97;;;;;;;;;;4980182;28;25124;-72
2023/09/29 14:34:45;;;;;;;9.65;2.33;;;;;;;;;;4984960;28;25065;-72
2023/09/29 14:37:11;;;;;;;11.25;2.70;;;;;;;;;;4976667;28;25157;-70
2023/09/29 14:39:37;;;;;;;6.80;2.22;;;;;;;;;;4983848;28;25063;-72